createdAt,value
2022-12-29T06:33:46.105Z,99787.34
2022-12-29T06:36:15.048Z,99778.94
2022-12-29T06:38:44.442Z,99789.06
2022-12-29T06:41:11.091Z,99774.78
2022-12-29T06:43:57.602Z,99766.09
2022-12-29T06:46:36.599Z,99742.53
2022-12-29T06:49:03.188Z,99767.75
2022-12-29T06:51:29.723Z,99741.97
2022-12-29T06:53:56.304Z,99772.66
2022-12-29T06:56:22.863Z,99764.41
2022-12-29T06:58:49.497Z,99768.13
2022-12-29T07:01:19.166Z,99770.19
2022-12-29T07:03:48.828Z,99776.16
2022-12-29T07:06:15.465Z,99785.34
2022-12-29T07:08:42.031Z,99787.44
2022-12-29T07:11:09.497Z,99770.16
2022-12-29T07:13:36.277Z,99781.31
2022-12-29T07:16:07.392Z,99786.31
2022-12-29T07:18:33.985Z,99778.72
2022-12-29T07:21:00.568Z,99783.41
2022-12-29T07:23:27.058Z,99790.84
2022-12-29T07:26:03.671Z,99789.22
2022-12-29T07:28:30.687Z,99787.94
2022-12-29T07:30:57.282Z,99795.84
2022-12-29T07:33:29.029Z,99788.91
2022-12-29T07:35:55.684Z,99803.72
2022-12-29T07:38:22.251Z,99802.28
2022-12-29T07:40:48.777Z,99802.78
2022-12-29T07:43:15.597Z,99803.44
2022-12-29T07:45:53.441Z,99809.78
2022-12-29T07:48:23.215Z,99808.13
2022-12-29T07:50:49.791Z,99804.28
2022-12-29T07:53:16.329Z,99801.19
2022-12-29T07:55:42.840Z,99808.94
2022-12-29T07:58:09.376Z,99804.44
2022-12-29T08:00:35.909Z,99813.63
2022-12-29T08:03:03.553Z,99799.59
2022-12-29T08:05:31.581Z,99808.28
2022-12-29T08:07:58.158Z,99809.94
2022-12-29T08:10:24.961Z,99819.78
2022-12-29T08:12:51.554Z,99826.41
2022-12-29T08:15:18.163Z,99824.91
2022-12-29T08:17:44.727Z,99826.84
2022-12-29T08:20:11.345Z,99832.84
2022-12-29T08:22:40.901Z,99840.56
2022-12-29T08:25:07.793Z,99844.78
2022-12-29T08:27:34.309Z,99848.03
2022-12-29T08:30:01.488Z,99847.69
2022-12-29T08:32:29.429Z,99860.63
2022-12-29T08:34:56.073Z,99864.34
2022-12-29T08:37:26.274Z,99859.81
2022-12-29T08:39:58.758Z,99866.91
2022-12-29T08:42:29.809Z,99858.19
2022-12-29T08:44:56.421Z,99854.47
2022-12-29T08:47:22.977Z,99863.84
2022-12-29T08:49:50.426Z,99855.13
2022-12-29T08:52:17.027Z,99860.63
2022-12-29T08:54:43.599Z,99862.38
2022-12-29T08:57:10.993Z,99861.41
2022-12-29T08:59:47.937Z,99861.13
2022-12-29T09:02:20.381Z,99869.00
2022-12-29T09:04:50.361Z,99863.22
2022-12-29T09:07:16.984Z,99861.75
2022-12-29T09:09:43.567Z,99870.78
2022-12-29T09:12:10.398Z,99869.03
2022-12-29T09:14:36.960Z,99876.63
2022-12-29T09:17:22.240Z,99877.09
2022-12-29T09:19:48.823Z,99881.28
2022-12-29T09:22:15.578Z,99881.78
2022-12-29T09:24:45.195Z,99891.94
2022-12-29T09:27:11.791Z,99896.81
2022-12-29T09:29:38.313Z,99898.75
2022-12-29T09:32:07.824Z,99896.00
2022-12-29T09:34:34.893Z,99909.22
2022-12-29T09:37:01.451Z,99905.66
2022-12-29T09:39:28.064Z,99914.72
2022-12-29T09:42:22.031Z,99922.63
2022-12-29T09:44:48.535Z,99915.69
2022-12-29T09:47:15.759Z,99921.97
2022-12-29T09:49:46.897Z,99920.84
2022-12-29T09:52:21.926Z,99930.53
2022-12-29T09:55:14.127Z,99922.78
2022-12-29T09:57:53.067Z,99921.66
2022-12-29T10:00:24.777Z,99931.81
2022-12-29T10:02:53.616Z,99930.34
2022-12-29T10:05:27.137Z,99930.81
2022-12-29T10:08:05.738Z,99934.50
2022-12-29T10:10:53.931Z,99932.22
2022-12-29T10:13:32.258Z,99926.69
2022-12-29T10:16:12.950Z,99934.09
2022-12-29T10:19:04.423Z,99913.06
2022-12-29T10:21:40.056Z,99925.13
2022-12-29T10:24:08.388Z,99929.94
2022-12-29T10:26:38.968Z,99932.13
2022-12-29T10:29:07.068Z,99916.41
2022-12-29T10:31:42.448Z,99942.72
2022-12-29T10:34:20.048Z,99934.22
2022-12-29T10:36:49.704Z,99948.75
2022-12-29T10:39:42.202Z,99953.59
2022-12-29T10:42:21.879Z,99938.00
2022-12-29T10:44:48.418Z,99953.78
2022-12-29T10:47:21.086Z,99946.06
2022-12-29T10:49:48.501Z,99937.78
2022-12-29T10:52:16.880Z,99925.38
2022-12-29T10:54:56.766Z,99909.91
2022-12-29T10:57:40.857Z,99922.34
2022-12-29T11:00:25.627Z,99924.94
2022-12-29T11:03:31.703Z,99931.06
2022-12-29T11:06:05.485Z,99926.25
2022-12-29T11:08:39.303Z,99927.56
2022-12-29T11:11:07.456Z,99941.09
2022-12-29T11:13:39.124Z,99932.75
2022-12-29T11:16:06.291Z,99941.19
2022-12-29T11:18:33.904Z,99947.03
2022-12-29T11:21:02.291Z,99935.63
2022-12-29T11:23:35.729Z,99943.28
2022-12-29T11:26:12.182Z,99945.34
2022-12-29T11:28:39.193Z,99944.41
2022-12-29T11:31:06.451Z,99942.59
2022-12-29T11:33:33.533Z,99952.81
2022-12-29T11:36:07.439Z,99943.59
2022-12-29T11:38:54.703Z,99936.84
2022-12-29T11:41:24.009Z,99943.94
2022-12-29T11:43:50.562Z,99945.25
2022-12-29T11:46:19.666Z,99935.53
2022-12-29T11:48:47.129Z,99931.63
2022-12-29T11:51:14.063Z,99931.47
2022-12-29T11:53:44.061Z,99928.38
2022-12-29T11:56:13.367Z,99932.91
2022-12-29T11:58:40.027Z,99937.41
2022-12-29T12:01:29.937Z,99920.94
2022-12-29T12:04:08.730Z,99901.97
2022-12-29T12:06:37.284Z,99918.31
2022-12-29T12:09:07.278Z,99918.03
2022-12-29T12:11:38.999Z,99906.91
2022-12-29T12:14:31.024Z,99912.56
2022-12-29T12:17:38.162Z,99905.78
2022-12-29T12:20:20.043Z,99915.16
2022-12-29T12:22:51.391Z,99911.28
2022-12-29T12:25:26.912Z,99909.19
2022-12-29T12:28:02.866Z,99910.00
2022-12-29T12:30:31.294Z,99913.25
2022-12-29T12:33:01.628Z,99907.94
2022-12-29T12:35:39.676Z,99901.47
2022-12-29T12:38:18.771Z,99911.31
2022-12-29T12:41:02.038Z,99905.34
2022-12-29T12:43:37.826Z,99902.28
2022-12-29T12:46:24.181Z,99889.03
2022-12-29T12:48:56.681Z,99886.28
2022-12-29T12:51:51.988Z,99889.53
2022-12-29T12:54:30.594Z,99878.06
2022-12-29T12:57:18.495Z,99881.13
2022-12-29T12:59:53.573Z,99901.16
2022-12-29T13:02:23.385Z,99901.16
2022-12-29T13:05:02.243Z,99895.84
2022-12-29T13:07:49.563Z,99898.25
2022-12-29T13:10:53.515Z,99890.00
2022-12-29T13:13:38.904Z,99897.44
2022-12-29T13:16:14.477Z,99892.78
2022-12-29T13:19:05.083Z,99882.25
2022-12-29T13:22:00.020Z,99897.13
2022-12-29T13:24:54.000Z,99897.94
2022-12-29T13:27:37.752Z,99883.41
2022-12-29T13:30:11.564Z,99902.63
2022-12-29T13:32:48.289Z,99897.13
2022-12-29T13:35:27.456Z,99901.97
2022-12-29T13:37:59.985Z,99891.13
2022-12-29T13:40:27.250Z,99901.00
2022-12-29T13:42:53.833Z,99895.19
2022-12-29T13:45:22.209Z,99898.44
2022-12-29T13:48:38.097Z,99890.34
2022-12-29T13:51:04.744Z,99895.34
2022-12-29T13:53:42.184Z,99896.94
2022-12-29T13:56:25.364Z,99891.44
2022-12-29T13:58:55.440Z,99893.41
2022-12-29T14:01:49.941Z,99891.63
2022-12-29T14:04:27.507Z,99894.38
2022-12-29T14:07:06.891Z,99902.44
2022-12-29T14:09:42.332Z,99907.59
2022-12-29T14:12:26.548Z,99917.28
2022-12-29T14:14:53.108Z,99906.00
2022-12-29T14:17:21.245Z,99911.50
2022-12-29T14:19:47.795Z,99906.00
2022-12-29T14:22:14.333Z,99907.94
2022-12-29T14:24:45.186Z,99922.97
2022-12-29T14:27:11.633Z,99915.84
2022-12-29T14:29:40.965Z,99919.09
2022-12-29T14:32:25.599Z,99937.00
2022-12-29T14:35:02.187Z,99925.69
2022-12-29T14:37:35.724Z,99942.81
2022-12-29T14:40:24.581Z,99948.78
2022-12-29T14:42:52.229Z,99951.06
2022-12-29T14:45:19.609Z,99966.91
2022-12-29T14:47:53.579Z,99968.00
2022-12-29T14:50:23.838Z,99978.97
2022-12-29T14:53:03.135Z,99981.72
2022-12-29T14:55:50.784Z,99991.09
2022-12-29T14:58:32.063Z,99961.50
2022-12-29T15:00:59.263Z,99978.69
2022-12-29T15:03:45.546Z,99963.00
2022-12-29T15:06:13.763Z,99971.56
2022-12-29T15:08:50.945Z,99963.66
2022-12-29T15:11:22.553Z,99962.03
2022-12-29T15:13:49.773Z,99952.84
2022-12-29T15:16:27.354Z,99952.84
2022-12-29T15:18:54.448Z,99943.78
2022-12-29T15:21:34.768Z,99948.16
2022-12-29T15:24:01.382Z,99941.69
2022-12-29T15:26:41.044Z,99960.72
2022-12-29T15:29:31.173Z,99967.88
2022-12-29T15:32:02.214Z,99971.72
2022-12-29T15:34:32.087Z,99970.09
2022-12-29T15:36:58.818Z,99967.53
2022-12-29T15:39:30.228Z,99977.41
2022-12-29T15:42:01.274Z,99987.56
2022-12-29T15:44:32.563Z,99987.56
2022-12-29T15:47:03.335Z,99979.16
2022-12-29T15:49:32.519Z,99984.34
2022-12-29T15:51:59.481Z,99994.03
2022-12-29T15:54:26.038Z,100001.44
2022-12-29T15:56:52.569Z,100008.47
2022-12-29T15:59:25.801Z,100015.63
2022-12-29T16:01:52.649Z,100011.59
2022-12-29T16:04:19.516Z,100022.28
2022-12-29T16:06:55.073Z,100021.28
2022-12-29T16:09:37.354Z,100027.00
2022-12-29T16:12:09.073Z,100032.22
2022-12-29T16:14:42.296Z,100033.09
2022-12-29T16:17:13.425Z,100025.38
2022-12-29T16:19:40.453Z,100032.13
2022-12-29T16:22:12.177Z,100039.44
2022-12-29T16:24:40.050Z,100036.69
2022-12-29T16:27:38.990Z,100043.50
2022-12-29T16:30:25.343Z,100043.34
2022-12-29T16:32:54.856Z,100048.53
2022-12-29T16:35:26.656Z,100037.06
2022-12-29T16:38:19.227Z,100047.25
2022-12-29T16:41:05.114Z,100050.06
2022-12-29T16:43:35.904Z,100059.91
2022-12-29T16:46:02.523Z,100063.47
2022-12-29T16:48:32.898Z,100063.97
2022-12-29T16:51:07.222Z,100057.84
2022-12-29T16:53:36.715Z,100060.88
2022-12-29T16:56:15.342Z,100058.81
2022-12-29T16:58:45.348Z,100055.41
2022-12-29T17:01:19.801Z,100065.91
2022-12-29T17:03:52.267Z,100054.16
2022-12-29T17:06:19.853Z,100065.63
2022-12-29T17:08:47.067Z,100067.41
2022-12-29T17:11:42.808Z,100058.88
2022-12-29T17:14:33.945Z,100064.22
2022-12-29T17:17:03.602Z,100063.41
2022-12-29T17:19:31.929Z,100068.88
2022-12-29T17:21:58.705Z,100069.69
2022-12-29T17:24:25.312Z,100081.97
2022-12-29T17:26:53.750Z,100072.47
2022-12-29T17:29:34.842Z,100080.56
2022-12-29T17:32:01.590Z,100075.41
2022-12-29T17:34:28.221Z,100079.75
2022-12-29T17:36:54.807Z,100088.78
2022-12-29T17:39:21.505Z,100094.63
2022-12-29T17:41:48.074Z,100102.06
2022-12-29T17:44:17.860Z,100101.41
2022-12-29T17:46:45.197Z,100121.78
2022-12-29T17:49:16.477Z,100117.09
2022-12-29T17:51:43.870Z,100114.03
2022-12-29T17:54:19.514Z,100118.72
2022-12-29T17:56:46.128Z,100119.69
2022-12-29T17:59:14.139Z,100119.88
2022-12-29T18:01:45.440Z,100115.34
2022-12-29T18:04:19.721Z,100102.56
2022-12-29T18:06:46.583Z,100090.16
2022-12-29T18:09:13.631Z,100074.81
2022-12-29T18:11:43.526Z,100056.22
2022-12-29T18:14:16.156Z,100059.63
2022-12-29T18:16:43.446Z,100066.25
2022-12-29T18:19:10.055Z,100065.44
2022-12-29T18:21:36.959Z,100071.25
2022-12-29T18:24:03.715Z,100084.34
2022-12-29T18:26:31.816Z,100090.31
2022-12-29T18:28:58.865Z,100083.84
2022-12-29T18:31:29.953Z,100087.09
2022-12-29T18:33:57.430Z,100071.09
2022-12-29T18:36:24.252Z,100086.47
2022-12-29T18:38:53.152Z,100077.09
2022-12-29T18:41:29.360Z,100084.19
2022-12-29T18:43:56.341Z,100084.19
2022-12-29T18:46:23.876Z,100080.97
2022-12-29T18:48:51.450Z,100072.59
2022-12-29T18:51:19.656Z,100075.16
2022-12-29T18:53:46.453Z,100078.91
2022-12-29T18:56:13.223Z,100082.94
2022-12-29T18:58:39.899Z,100088.53
2022-12-29T19:01:06.869Z,100092.16
2022-12-29T19:03:33.586Z,100087.47
2022-12-29T19:06:00.808Z,100080.66
2022-12-29T19:08:27.448Z,100089.69
2022-12-29T19:10:54.018Z,100081.09
2022-12-29T19:13:23.702Z,100086.94
2022-12-29T19:15:50.411Z,100083.22
2022-12-29T19:21:08.150Z,100087.09
2022-12-29T19:23:34.710Z,100075.94
2022-12-29T19:26:01.334Z,100082.88
2022-12-29T19:28:28.192Z,100088.03
2022-12-29T19:30:57.486Z,100100.84
2022-12-29T19:33:24.232Z,100095.47
2022-12-29T19:35:51.020Z,100083.00
2022-12-29T19:38:17.761Z,100080.59
2022-12-29T19:40:48.376Z,100072.50
2022-12-29T19:43:15.208Z,100096.09
2022-12-29T19:45:42.882Z,100094.50
2022-12-29T19:48:13.868Z,100095.13
2022-12-29T19:50:40.518Z,100094.50
2022-12-29T19:53:07.204Z,100106.13
2022-12-29T19:55:33.852Z,100098.38
2022-12-29T19:58:00.450Z,100103.22
2022-12-29T20:00:27.218Z,100103.22
2022-12-29T20:02:54.029Z,100097.53
2022-12-29T20:05:20.904Z,100103.53
2022-12-29T20:07:47.608Z,100117.09
2022-12-29T20:10:14.293Z,100124.19
2022-12-29T20:12:40.931Z,100138.09
2022-12-29T20:15:08.028Z,100142.03
2022-12-29T20:18:10.804Z,100127.88
2022-12-29T20:20:21.745Z,100140.25
2022-12-29T20:22:48.402Z,100140.66
2022-12-29T20:28:01.538Z,100136.81
2022-12-29T20:30:28.170Z,100144.31
2022-12-29T20:32:54.845Z,100152.81
2022-12-29T20:35:21.561Z,100151.16
2022-12-29T20:37:48.181Z,100151.16
2022-12-29T20:40:14.823Z,100146.28
2022-12-29T20:42:41.377Z,100148.88
2022-12-29T20:45:08.196Z,100150.06
2022-12-29T20:47:34.794Z,100149.28
2022-12-29T20:50:01.443Z,100149.13
2022-12-29T20:52:28.543Z,100148.50
2022-12-29T20:54:55.147Z,100161.41
2022-12-29T20:57:21.769Z,100158.47
2022-12-29T20:59:48.396Z,100139.13
2022-12-29T21:02:21.813Z,100161.59
2022-12-29T21:07:35.312Z,100166.94
2022-12-29T21:10:01.934Z,100166.94
2022-12-29T21:12:31.644Z,100162.22
2022-12-29T21:14:58.239Z,100184.53
2022-12-29T21:17:27.784Z,100190.66
2022-12-29T21:19:54.377Z,100181.50
2022-12-29T21:22:21.052Z,100190.91
2022-12-29T21:24:47.729Z,100183.72
2022-12-29T21:27:14.363Z,100193.09
2022-12-29T21:29:43.845Z,100187.28
2022-12-29T21:32:13.536Z,100189.34
2022-12-29T21:34:40.131Z,100188.22
2022-12-29T21:37:06.744Z,100186.78
2022-12-29T21:39:33.478Z,100187.28
2022-12-29T21:42:01.690Z,100186.91
2022-12-29T21:44:46.872Z,100191.28
2022-12-29T21:47:13.494Z,100199.03
2022-12-29T21:49:40.085Z,100187.44
2022-12-29T21:52:09.550Z,100190.00
2022-12-29T21:54:54.426Z,100195.16
2022-12-29T21:57:39.897Z,100206.13
2022-12-29T22:00:26.638Z,100209.38
2022-12-29T22:03:20.158Z,100211.00
2022-12-29T22:06:08.234Z,100210.81
2022-12-29T22:08:53.709Z,100211.69
2022-12-29T22:11:38.821Z,100211.97
2022-12-29T22:14:06.359Z,100224.28
2022-12-29T22:16:33.111Z,100235.19
2022-12-29T22:18:59.757Z,100238.06
2022-12-29T22:21:26.370Z,100239.22
2022-12-29T22:23:53.110Z,100238.19
2022-12-29T22:26:22.336Z,100251.44
2022-12-29T22:28:51.873Z,100257.53
2022-12-29T22:31:27.386Z,100253.03
2022-12-29T22:33:55.779Z,100259.66
2022-12-29T22:36:23.028Z,100265.59
2022-12-29T22:38:49.951Z,100280.31
2022-12-29T22:41:16.740Z,100275.94
2022-12-29T22:43:43.405Z,100275.31
2022-12-29T22:46:10.166Z,100277.66
2022-12-29T22:48:36.925Z,100290.38
2022-12-29T22:51:03.818Z,100297.19
2022-12-29T22:53:30.520Z,100298.31
2022-12-29T22:56:11.285Z,100299.94
2022-12-29T22:58:44.891Z,100313.03
2022-12-29T23:01:12.362Z,100314.47
2022-12-29T23:03:39.196Z,100311.03
2022-12-29T23:06:06.640Z,100305.06
2022-12-29T23:08:34.788Z,100306.19
2022-12-29T23:11:01.563Z,100302.38
2022-12-29T23:13:28.166Z,100302.78
2022-12-29T23:15:54.797Z,100278.94
2022-12-29T23:18:21.418Z,100295.69
2022-12-29T23:20:48.647Z,100305.25
2022-12-29T23:23:36.008Z,100307.28
2022-12-29T23:26:02.671Z,100311.34
2022-12-29T23:28:29.276Z,100307.97
2022-12-29T23:30:55.836Z,100308.94
2022-12-29T23:33:22.442Z,100316.63
2022-12-29T23:35:49.002Z,100316.91
2022-12-29T23:38:15.625Z,100313.06
2022-12-29T23:40:42.156Z,100310.13
2022-12-29T23:43:08.688Z,100319.91
2022-12-29T23:45:36.066Z,100326.38
2022-12-29T23:48:02.636Z,100331.34
2022-12-29T23:50:29.236Z,100326.50
2022-12-29T23:52:55.784Z,100317.16
2022-12-29T23:55:22.416Z,100329.00
2022-12-29T23:57:48.958Z,100299.16
